Time,TemperatureF,DewpointF,PressureIn,WindDirection,WindDirectionDegrees,WindSpeedMPH,WindSpeedGustMPH,Humidity,HourlyPrecipIn,Conditions,Clouds,dailyrainin,SoftwareType,DateUTC
2013-03-11 00:00:00,35.6,30.9,30.19,NE,54,0.0,0.0,83,0.00,,,0.00,Wunderground v.1.15,2013-03-11 04:00:00,
2013-03-11 00:10:00,35.8,31.4,30.19,NE,52,0.0,0.0,84,0.00,,,0.00,Wunderground v.1.15,2013-03-11 04:10:00,
2013-03-11 00:20:00,35.8,31.4,30.17,NE,52,0.0,0.0,84,0.00,,,0.00,Wunderground v.1.15,2013-03-11 04:20:00,
2013-03-11 00:30:00,35.9,31.5,30.19,NE,52,0.0,0.0,84,0.00,,,0.00,Wunderground v.1.15,2013-03-11 04:30:00,
2013-03-11 00:50:00,36.2,31.5,30.19,NNE,31,0.0,0.0,83,0.00,,,0.00,Wunderground v.1.15,2013-03-11 04:50:00,
2013-03-11 01:00:00,36.2,31.5,30.19,NNE,31,0.0,0.0,83,0.00,,,0.00,Wunderground v.1.15,2013-03-11 05:00:00,
2013-03-11 01:10:00,36.2,31.5,30.19,NNE,31,0.0,0.0,83,0.00,,,0.00,Wunderground v.1.15,2013-03-11 05:10:00,
2013-03-11 01:20:00,36.2,31.5,30.17,NNE,31,0.0,0.0,83,0.00,,,0.00,Wunderground v.1.15,2013-03-11 05:20:00,
2013-03-11 01:30:00,36.0,31.3,30.17,NNE,31,0.0,0.0,83,0.00,,,0.00,Wunderground v.1.15,2013-03-11 05:30:00,
2013-03-11 01:40:00,36.0,31.6,30.17,NNE,31,0.0,0.0,84,0.00,,,0.00,Wunderground v.1.15,2013-03-11 05:40:00,
2013-03-11 01:50:00,36.0,31.6,30.18,NNE,31,0.0,0.0,84,0.00,,,0.00,Wunderground v.1.15,2013-03-11 05:50:00,
2013-03-11 02:00:00,35.9,31.5,30.16,NNE,31,0.0,0.0,84,0.00,,,0.00,Wunderground v.1.15,2013-03-11 06:00:00,
2013-03-11 02:10:00,35.8,31.7,30.16,North,3,0.0,0.0,85,0.00,,,0.00,Wunderground v.1.15,2013-03-11 06:10:00,
2013-03-11 02:20:00,35.9,31.8,30.16,North,3,0.0,0.0,85,0.00,,,0.00,Wunderground v.1.15,2013-03-11 06:20:00,
2013-03-11 02:30:00,36.0,31.9,30.16,North,3,0.0,0.0,85,0.00,,,0.00,Wunderground v.1.15,2013-03-11 06:30:00,
2013-03-11 02:40:00,36.2,32.1,30.16,North,3,0.0,0.0,85,0.00,,,0.00,Wunderground v.1.15,2013-03-11 06:40:00,
2013-03-11 02:50:00,36.5,32.4,30.16,North,3,0.0,0.0,85,0.00,,,0.00,Wunderground v.1.15,2013-03-11 06:50:00,
2013-03-11 03:00:00,36.6,32.5,30.16,North,3,0.0,0.0,85,0.00,,,0.00,Wunderground v.1.15,2013-03-11 07:00:00,
2013-03-11 03:10:00,36.6,32.5,30.16,North,0,0.0,1.0,85,0.00,,,0.00,Wunderground v.1.15,2013-03-11 07:10:00,
2013-03-11 03:20:00,36.6,32.5,30.15,North,0,0.0,0.0,85,0.00,,,0.00,Wunderground v.1.15,2013-03-11 07:20:00,
2013-03-11 03:30:00,36.8,32.7,30.14,North,0,0.0,0.0,85,0.00,,,0.00,Wunderground v.1.15,2013-03-11 07:30:00,
2013-03-11 03:40:00,36.9,32.8,30.14,North,0,0.0,0.0,85,0.00,,,0.00,Wunderground v.1.15,2013-03-11 07:40:00,
2013-03-11 03:50:00,36.9,32.8,30.14,North,0,0.0,0.0,85,0.00,,,0.00,Wunderground v.1.15,2013-03-11 07:50:00,
2013-03-11 04:00:00,37.0,32.9,30.14,NW,323,0.0,0.0,85,0.00,,,0.00,Wunderground v.1.15,2013-03-11 08:00:00,
2013-03-11 04:10:00,37.2,33.1,30.14,NW,323,0.0,0.0,85,0.00,,,0.00,Wunderground v.1.15,2013-03-11 08:10:00,
2013-03-11 04:20:00,37.2,33.1,30.14,NW,323,0.0,0.0,85,0.00,,,0.00,Wunderground v.1.15,2013-03-11 08:20:00,
2013-03-11 04:30:00,37.2,33.1,30.13,NW,323,0.0,0.0,85,0.00,,,0.00,Wunderground v.1.15,2013-03-11 08:30:00,
2013-03-11 04:40:00,37.3,33.2,30.13,NW,323,0.0,0.0,85,0.00,,,0.00,Wunderground v.1.15,2013-03-11 08:40:00,
2013-03-11 04:50:00,37.3,33.2,30.14,NW,323,0.0,0.0,85,0.00,,,0.00,Wunderground v.1.15,2013-03-11 08:50:00,
2013-03-11 05:00:00,37.3,33.2,30.13,NW,323,0.0,0.0,85,0.00,,,0.00,Wunderground v.1.15,2013-03-11 09:00:00,
2013-03-11 05:10:00,37.3,33.5,30.13,NW,323,0.0,0.0,86,0.00,,,0.00,Wunderground v.1.15,2013-03-11 09:10:00,
2013-03-11 05:20:00,37.3,33.5,30.13,NW,323,0.0,0.0,86,0.00,,,0.00,Wunderground v.1.15,2013-03-11 09:20:00,
2013-03-11 05:30:00,37.3,33.5,30.13,NW,323,0.0,0.0,86,0.00,,,0.00,Wunderground v.1.15,2013-03-11 09:30:00,
2013-03-11 05:40:00,37.5,33.7,30.13,NW,323,0.0,0.0,86,0.00,,,0.00,Wunderground v.1.15,2013-03-11 09:40:00,
2013-03-11 05:50:00,37.5,33.7,30.13,NW,323,0.0,0.0,86,0.00,,,0.00,Wunderground v.1.15,2013-03-11 09:50:00,
2013-03-11 06:00:00,37.3,33.5,30.13,NW,323,0.0,0.0,86,0.00,,,0.00,Wunderground v.1.15,2013-03-11 10:00:00,
2013-03-11 06:10:00,37.3,33.5,30.13,NW,323,0.0,0.0,86,0.00,,,0.00,Wunderground v.1.15,2013-03-11 10:10:00,
2013-03-11 06:20:00,37.3,33.5,30.12,NW,312,0.0,0.0,86,0.00,,,0.00,Wunderground v.1.15,2013-03-11 10:20:00,
2013-03-11 06:30:00,37.2,33.4,30.13,NW,312,0.0,0.0,86,0.00,,,0.00,Wunderground v.1.15,2013-03-11 10:30:00,
2013-03-11 06:40:00,37.3,33.5,30.13,NW,312,0.0,0.0,86,0.00,,,0.00,Wunderground v.1.15,2013-03-11 10:40:00,
2013-03-11 06:50:00,37.3,33.5,30.13,NW,312,0.0,0.0,86,0.00,,,0.00,Wunderground v.1.15,2013-03-11 10:50:00,
2013-03-11 07:00:00,37.3,33.5,30.12,NW,309,0.0,0.0,86,0.00,,,0.00,Wunderground v.1.15,2013-03-11 11:00:00,
2013-03-11 07:10:00,37.2,33.4,30.12,NW,311,0.0,0.0,86,0.00,,,0.00,Wunderground v.1.15,2013-03-11 11:10:00,
2013-03-11 07:20:00,37.2,33.4,30.12,NW,311,0.0,0.0,86,0.00,,,0.00,Wunderground v.1.15,2013-03-11 11:20:00,
2013-03-11 07:30:00,37.2,33.4,30.12,NW,311,0.0,0.0,86,0.00,,,0.00,Wunderground v.1.15,2013-03-11 11:30:00,
2013-03-11 07:40:00,37.3,33.5,30.12,NW,311,0.0,0.0,86,0.00,,,0.00,Wunderground v.1.15,2013-03-11 11:40:00,
2013-03-11 07:50:00,37.6,33.8,30.12,NW,308,0.0,0.0,86,0.00,,,0.00,Wunderground v.1.15,2013-03-11 11:50:00,
2013-03-11 08:00:00,37.9,34.1,30.12,NW,308,0.0,0.0,86,0.00,,,0.00,Wunderground v.1.15,2013-03-11 12:00:00,
2013-03-11 08:10:00,38.2,34.4,30.12,NW,308,0.0,0.0,86,0.00,,,0.00,Wunderground v.1.15,2013-03-11 12:10:00,
2013-03-11 08:20:00,38.5,34.4,30.12,NW,308,0.0,0.0,85,0.00,,,0.00,Wunderground v.1.15,2013-03-11 12:20:00,
2013-03-11 08:30:00,38.9,34.8,30.13,NW,308,0.0,1.0,85,0.00,,,0.00,Wunderground v.1.15,2013-03-11 12:30:00,
2013-03-11 08:40:00,39.3,34.9,30.13,North,0,0.0,0.0,84,0.00,,,0.00,Wunderground v.1.15,2013-03-11 12:40:00,
2013-03-11 08:50:00,39.5,35.1,30.13,West,281,0.0,0.0,84,0.00,,,0.00,Wunderground v.1.15,2013-03-11 12:50:00,
2013-03-11 09:00:00,39.8,35.1,30.13,WNW,285,1.0,1.0,83,0.00,,,0.00,Wunderground v.1.15,2013-03-11 13:00:00,
2013-03-11 09:10:00,40.1,35.7,30.13,North,359,0.0,0.0,84,0.00,,,0.00,Wunderground v.1.15,2013-03-11 13:10:00,
2013-03-11 09:20:00,40.3,35.5,30.13,North,4,0.0,0.0,83,0.00,,,0.00,Wunderground v.1.15,2013-03-11 13:20:00,
2013-03-11 09:30:00,40.6,35.8,30.13,NNE,14,0.0,0.0,83,0.00,,,0.00,Wunderground v.1.15,2013-03-11 13:30:00,
2013-03-11 09:40:00,41.2,36.1,30.13,NW,315,0.0,0.0,82,0.00,,,0.00,Wunderground v.1.15,2013-03-11 13:40:00,
2013-03-11 09:50:00,41.6,36.2,30.13,North,7,0.0,7.0,81,0.00,,,0.00,Wunderground v.1.15,2013-03-11 13:50:00,
2013-03-11 10:00:00,41.9,36.5,30.14,North,359,1.0,1.0,81,0.00,,,0.00,Wunderground v.1.15,2013-03-11 14:00:00,
2013-03-11 10:10:00,42.5,37.1,30.14,North,359,0.0,0.0,81,0.00,,,0.00,Wunderground v.1.15,2013-03-11 14:10:00,
2013-03-11 10:20:00,42.6,36.9,30.13,ENE,71,1.0,1.0,80,0.00,,,0.00,Wunderground v.1.15,2013-03-11 14:20:00,
2013-03-11 10:30:00,43.1,37.3,30.14,NE,52,1.0,1.0,80,0.00,,,0.00,Wunderground v.1.15,2013-03-11 14:30:00,
2013-03-11 10:40:00,43.5,37.4,30.14,ENE,66,2.0,2.0,79,0.00,,,0.00,Wunderground v.1.15,2013-03-11 14:40:00,
2013-03-11 10:50:00,44.3,37.9,30.13,North,359,1.0,1.0,78,0.00,,,0.00,Wunderground v.1.15,2013-03-11 14:50:00,
2013-03-11 11:00:00,45.2,38.1,30.13,North,0,1.0,1.0,76,0.00,,,0.00,Wunderground v.1.15,2013-03-11 15:00:00,
2013-03-11 11:10:00,45.5,38.0,30.13,North,0,1.0,2.0,75,0.00,,,0.00,Wunderground v.1.15,2013-03-11 15:10:00,
2013-03-11 11:20:00,46.0,38.5,30.11,NNW,329,1.0,1.0,75,0.00,,,0.00,Wunderground v.1.15,2013-03-11 15:20:00,
2013-03-11 11:30:00,46.2,38.0,30.10,ENE,73,1.0,3.0,73,0.00,,,0.00,Wunderground v.1.15,2013-03-11 15:30:00,
2013-03-11 11:40:00,46.4,38.2,30.10,WNW,291,1.0,1.0,73,0.00,,,0.00,Wunderground v.1.15,2013-03-11 15:40:00,
2013-03-11 11:50:00,46.5,38.3,30.10,NNE,23,2.0,4.0,73,0.00,,,0.00,Wunderground v.1.15,2013-03-11 15:50:00,
2013-03-11 12:00:00,46.7,38.1,30.10,North,6,3.0,6.0,72,0.00,,,0.00,Wunderground v.1.15,2013-03-11 16:00:00,
2013-03-11 12:10:00,47.3,38.7,30.10,North,359,3.0,3.0,72,0.00,,,0.00,Wunderground v.1.15,2013-03-11 16:10:00,
2013-03-11 12:20:00,47.9,38.9,30.10,North,359,4.0,6.0,71,0.00,,,0.00,Wunderground v.1.15,2013-03-11 16:20:00,
2013-03-11 12:30:00,48.8,39.4,30.10,NE,52,4.0,6.0,70,0.00,,,0.00,Wunderground v.1.15,2013-03-11 16:30:00,
2013-03-11 12:40:00,49.2,39.5,30.10,North,359,3.0,3.0,69,0.00,,,0.00,Wunderground v.1.15,2013-03-11 16:40:00,
2013-03-11 12:50:00,49.1,39.4,30.09,NNE,16,3.0,3.0,69,0.00,,,0.00,Wunderground v.1.15,2013-03-11 16:50:00,
2013-03-11 13:00:00,49.8,40.4,30.08,North,0,1.0,1.0,70,0.00,,,0.00,Wunderground v.1.15,2013-03-11 17:00:00,
2013-03-11 13:10:00,50.8,40.2,30.08,NNE,24,3.0,3.0,67,0.00,,,0.00,Wunderground v.1.15,2013-03-11 17:10:00,
2013-03-11 13:20:00,51.1,40.1,30.08,East,82,4.0,4.0,66,0.00,,,0.00,Wunderground v.1.15,2013-03-11 17:20:00,
2013-03-11 13:30:00,51.3,39.5,30.07,NE,49,4.0,4.0,64,0.00,,,0.00,Wunderground v.1.15,2013-03-11 17:30:00,
2013-03-11 13:40:00,51.7,39.9,30.07,North,7,4.0,4.0,64,0.00,,,0.00,Wunderground v.1.15,2013-03-11 17:40:00,
2013-03-11 13:50:00,52.8,39.7,30.06,North,4,2.0,2.0,61,0.00,,,0.00,Wunderground v.1.15,2013-03-11 17:50:00,
2013-03-11 14:00:00,52.2,39.6,30.05,North,359,3.0,3.0,62,0.00,,,0.00,Wunderground v.1.15,2013-03-11 18:00:00,
2013-03-11 14:10:00,51.7,39.5,30.05,North,6,4.0,4.0,63,0.00,,,0.00,Wunderground v.1.15,2013-03-11 18:10:00,
2013-03-11 14:20:00,52.0,39.8,30.05,North,4,3.0,3.0,63,0.00,,,0.00,Wunderground v.1.15,2013-03-11 18:20:00,
2013-03-11 14:30:00,52.3,39.7,30.05,North,3,2.0,3.0,62,0.00,,,0.00,Wunderground v.1.15,2013-03-11 18:30:00,
2013-03-11 14:40:00,52.3,40.1,30.05,NNE,13,3.0,3.0,63,0.00,,,0.00,Wunderground v.1.15,2013-03-11 18:40:00,
2013-03-11 14:50:00,51.9,38.9,30.04,West,265,4.0,4.0,61,0.00,,,0.00,Wunderground v.1.15,2013-03-11 18:50:00,
2013-03-11 15:00:00,51.7,39.1,30.03,North,0,3.0,3.0,62,0.00,,,0.00,Wunderground v.1.15,2013-03-11 19:00:00,
2013-03-11 15:10:00,51.7,38.7,30.03,North,11,4.0,6.0,61,0.00,,,0.00,Wunderground v.1.15,2013-03-11 19:10:00,
2013-03-11 15:20:00,51.9,39.3,30.02,West,271,2.0,5.0,62,0.00,,,0.00,Wunderground v.1.15,2013-03-11 19:20:00,
2013-03-11 15:30:00,52.2,40.0,30.02,NNE,16,2.0,2.0,63,0.00,,,0.00,Wunderground v.1.15,2013-03-11 19:30:00,
2013-03-11 15:40:00,52.0,39.8,30.02,NNW,329,2.0,2.0,63,0.00,,,0.00,Wunderground v.1.15,2013-03-11 19:40:00,
2013-03-11 15:50:00,51.4,39.6,30.02,North,0,2.0,7.0,64,0.00,,,0.00,Wunderground v.1.15,2013-03-11 19:50:00,
2013-03-11 16:00:00,51.0,39.2,30.02,West,267,3.0,3.0,64,0.00,,,0.00,Wunderground v.1.15,2013-03-11 20:00:00,
2013-03-11 16:10:00,51.0,39.6,30.02,NNE,17,2.0,2.0,65,0.00,,,0.00,Wunderground v.1.15,2013-03-11 20:10:00,
2013-03-11 16:20:00,51.0,40.4,30.01,NNW,336,1.0,1.0,67,0.00,,,0.00,Wunderground v.1.15,2013-03-11 20:20:00,
2013-03-11 16:30:00,51.0,40.0,30.01,North,0,1.0,2.0,66,0.00,,,0.00,Wunderground v.1.15,2013-03-11 20:30:00,
2013-03-11 16:40:00,50.4,40.2,30.01,North,359,3.0,3.0,68,0.00,,,0.00,Wunderground v.1.15,2013-03-11 20:40:00,
2013-03-11 16:50:00,50.1,40.7,30.00,North,10,3.0,3.0,70,0.00,,,0.00,Wunderground v.1.15,2013-03-11 20:50:00,
2013-03-11 17:00:00,49.9,40.9,30.00,North,0,2.0,5.0,71,0.00,,,0.00,Wunderground v.1.15,2013-03-11 21:00:00,
2013-03-11 17:10:00,49.8,40.8,30.00,North,356,2.0,3.0,71,0.00,,,0.00,Wunderground v.1.15,2013-03-11 21:10:00,
2013-03-11 17:20:00,49.8,40.8,30.00,North,359,2.0,2.0,71,0.00,,,0.00,Wunderground v.1.15,2013-03-11 21:20:00,
2013-03-11 17:30:00,49.5,40.8,30.01,North,0,3.0,3.0,72,0.00,,,0.00,Wunderground v.1.15,2013-03-11 21:30:00,
2013-03-11 17:40:00,49.5,40.8,30.01,North,1,3.0,3.0,72,0.00,,,0.00,Wunderground v.1.15,2013-03-11 21:40:00,
2013-03-11 17:50:00,49.5,41.2,30.00,ENE,62,2.0,2.0,73,0.00,,,0.00,Wunderground v.1.15,2013-03-11 21:50:00,
2013-03-11 18:00:00,49.5,41.2,30.00,WSW,257,2.0,2.0,73,0.00,,,0.00,Wunderground v.1.15,2013-03-11 22:00:00,
2013-03-11 18:10:00,49.4,41.5,30.00,North,0,2.0,2.0,74,0.00,,,0.00,Wunderground v.1.15,2013-03-11 22:10:00,
2013-03-11 18:20:00,49.2,41.3,30.00,North,359,3.0,5.0,74,0.00,,,0.00,Wunderground v.1.15,2013-03-11 22:20:00,
2013-03-11 18:30:00,49.1,41.5,30.00,WNW,285,2.0,2.0,75,0.00,,,0.00,Wunderground v.1.15,2013-03-11 22:30:00,
2013-03-11 18:40:00,48.9,41.7,30.00,North,0,1.0,1.0,76,0.00,,,0.00,Wunderground v.1.15,2013-03-11 22:40:00,
2013-03-11 18:50:00,48.8,41.9,30.00,NNW,339,1.0,3.0,77,0.00,,,0.00,Wunderground v.1.15,2013-03-11 22:50:00,
2013-03-11 19:00:00,48.5,42.0,29.99,North,1,3.0,3.0,78,0.00,,,0.00,Wunderground v.1.15,2013-03-11 23:00:00,
2013-03-11 19:10:00,48.2,42.0,29.99,North,6,1.0,4.0,79,0.00,,,0.00,Wunderground v.1.15,2013-03-11 23:10:00,
2013-03-11 19:20:00,48.0,42.1,29.99,North,356,1.0,1.0,80,0.00,,,0.00,Wunderground v.1.15,2013-03-11 23:20:00,
2013-03-11 19:30:00,48.0,42.1,30.00,North,6,1.0,1.0,80,0.00,,,0.00,Wunderground v.1.15,2013-03-11 23:30:00,
2013-03-11 19:40:00,48.0,42.4,30.00,North,3,2.0,2.0,81,0.00,,,0.00,Wunderground v.1.15,2013-03-11 23:40:00,
2013-03-11 19:50:00,48.0,42.4,30.00,North,359,1.0,1.0,81,0.00,,,0.00,Wunderground v.1.15,2013-03-11 23:50:00,
2013-03-11 20:00:00,47.9,42.3,30.00,SE,124,1.0,1.0,81,0.00,,,0.00,Wunderground v.1.15,2013-03-12 00:00:00,
2013-03-11 20:10:00,47.9,42.3,30.00,North,350,1.0,2.0,81,0.00,,,0.00,Wunderground v.1.15,2013-03-12 00:10:00,
2013-03-11 20:20:00,47.9,42.7,29.99,WSW,244,1.0,1.0,82,0.00,,,0.00,Wunderground v.1.15,2013-03-12 00:20:00,
2013-03-11 20:30:00,48.0,43.1,30.00,NNW,333,0.0,0.0,83,0.00,,,0.00,Wunderground v.1.15,2013-03-12 00:30:00,
2013-03-11 20:40:00,48.0,43.1,30.00,NE,40,1.0,1.0,83,0.00,,,0.00,Wunderground v.1.15,2013-03-12 00:40:00,
2013-03-11 20:50:00,48.2,43.3,30.00,North,0,1.0,1.0,83,0.00,,,0.00,Wunderground v.1.15,2013-03-12 00:50:00,
2013-03-11 21:00:00,48.2,43.6,30.00,North,0,1.0,3.0,84,0.00,,,0.00,Wunderground v.1.15,2013-03-12 01:00:00,
2013-03-11 21:10:00,48.0,43.4,30.00,North,0,1.0,1.0,84,0.00,,,0.00,Wunderground v.1.15,2013-03-12 01:10:00,
2013-03-11 21:20:00,48.0,43.7,29.99,North,0,1.0,1.0,85,0.00,,,0.00,Wunderground v.1.15,2013-03-12 01:20:00,
2013-03-11 21:30:00,48.0,43.7,29.98,North,0,1.0,5.0,85,0.00,,,0.00,Wunderground v.1.15,2013-03-12 01:30:00,
2013-03-11 21:40:00,48.0,43.7,29.98,North,3,1.0,1.0,85,0.00,,,0.00,Wunderground v.1.15,2013-03-12 01:40:00,
2013-03-11 21:50:00,48.0,43.7,29.98,North,10,1.0,1.0,85,0.00,,,0.00,Wunderground v.1.15,2013-03-12 01:50:00,
2013-03-11 22:00:00,48.0,44.0,29.99,NE,51,2.0,2.0,86,0.00,,,0.00,Wunderground v.1.15,2013-03-12 02:00:00,
2013-03-11 22:10:00,48.0,44.0,29.99,NNE,14,1.0,1.0,86,0.00,,,0.00,Wunderground v.1.15,2013-03-12 02:10:00,
2013-03-11 22:20:00,48.0,44.0,29.99,North,7,1.0,2.0,86,0.00,,,0.00,Wunderground v.1.15,2013-03-12 02:20:00,
2013-03-11 22:30:00,48.0,44.0,29.98,North,356,1.0,1.0,86,0.00,,,0.00,Wunderground v.1.15,2013-03-12 02:30:00,
2013-03-11 22:40:00,48.2,44.2,29.98,NNE,25,2.0,2.0,86,0.00,,,0.00,Wunderground v.1.15,2013-03-12 02:40:00,
2013-03-11 22:50:00,48.2,44.5,29.97,North,359,1.0,1.0,87,0.00,,,0.00,Wunderground v.1.15,2013-03-12 02:50:00,
2013-03-11 23:00:00,48.2,44.5,29.98,NW,316,1.0,1.0,87,0.00,,,0.00,Wunderground v.1.15,2013-03-12 03:00:00,
2013-03-11 23:10:00,48.3,44.6,29.98,North,359,1.0,1.0,87,0.00,,,0.00,Wunderground v.1.15,2013-03-12 03:10:00,
2013-03-11 23:20:00,48.5,44.8,29.97,North,350,1.0,1.0,87,0.00,,,0.00,Wunderground v.1.15,2013-03-12 03:20:00,
2013-03-11 23:30:00,48.6,44.9,29.96,North,0,1.0,2.0,87,0.00,,,0.00,Wunderground v.1.15,2013-03-12 03:30:00,
2013-03-11 23:40:00,48.8,45.1,29.96,North,349,1.0,1.0,87,0.00,,,0.00,Wunderground v.1.15,2013-03-12 03:40:00,
2013-03-11 23:50:00,49.2,45.5,29.97,NNE,24,2.0,3.0,87,0.00,,,0.00,Wunderground v.1.15,2013-03-12 03:50:00,